Time;durP1;ratioP1;P1;durP2;ratioP2;P2;SDS_P1;SDS_P2;PMS_P1;PMS_P2;Temp;Humidity;BMP_temperature;BMP_pressure;BME280_temperature;BME280_humidity;BME280_pressure;Samples;Min_cycle;Max_cycle;Signal;HPM_P1;HPM_P2
2022/05/03 00:01:09;;;;;;;8.35;5.75;;;7.50;99.90;8.00;98166.00;;;;4888233;28;87534;-64
2022/05/03 00:04:16;;;;;;;10.73;6.05;;;7.40;99.90;7.90;98154.00;;;;4893088;28;87592;-65
2022/05/03 00:07:01;;;;;;;7.45;5.68;;;7.40;99.90;7.90;98157.00;;;;4892130;28;88612;-66
2022/05/03 00:10:03;;;;;;;7.55;5.95;;;7.30;99.90;7.80;98152.00;;;;4894761;28;88326;-65
2022/05/03 00:12:38;;;;;;;9.07;5.70;;;7.20;99.90;7.80;98152.00;;;;4902111;28;87081;-66
2022/05/03 00:15:06;;;;;;;9.85;5.65;;;7.20;99.90;7.70;98153.00;;;;4891912;28;87028;-66
2022/05/03 00:17:33;;;;;;;8.50;5.65;;;7.20;99.90;7.70;98154.00;;;;4888811;28;88853;-66
2022/05/03 00:20:02;;;;;;;8.13;5.35;;;7.10;99.90;7.70;98147.00;;;;4892553;28;87898;-66
2022/05/03 00:22:32;;;;;;;6.55;5.80;;;7.10;99.90;7.70;98137.00;;;;4884605;28;87112;-65
2022/05/03 00:24:59;;;;;;;9.00;6.18;;;7.10;99.90;7.60;98139.00;;;;4891731;28;86368;-65
2022/05/03 00:27:28;;;;;;;7.95;6.18;;;7.10;99.90;7.50;98135.00;;;;4884827;28;87604;-66
2022/05/03 00:29:57;;;;;;;8.20;5.80;;;7.00;99.90;7.40;98134.00;;;;4882853;28;87665;-67
2022/05/03 00:32:28;;;;;;;6.88;6.10;;;7.00;99.90;7.40;98142.00;;;;4891166;28;88636;-67
2022/05/03 00:34:58;;;;;;;7.57;6.25;;;6.90;99.90;7.50;98129.00;;;;4891873;28;87214;-67
2022/05/03 00:37:24;;;;;;;7.05;5.55;;;7.00;99.90;7.50;98131.00;;;;4892929;28;87574;-66
2022/05/03 00:39:50;;;;;;;7.35;6.13;;;6.90;99.90;7.50;98124.00;;;;4883215;28;88474;-66
2022/05/03 00:42:23;;;;;;;6.93;6.22;;;6.90;99.90;7.40;98122.00;;;;4892142;28;87314;-66
2022/05/03 00:45:15;;;;;;;9.13;6.03;;;6.90;99.90;7.40;98119.00;;;;4883541;28;87415;-66
2022/05/03 00:48:19;;;;;;;7.55;6.18;;;6.80;99.90;7.40;98118.00;;;;4891339;28;87681;-67
2022/05/03 00:51:12;;;;;;;8.82;6.43;;;6.90;99.90;7.40;98121.00;;;;4880754;28;87628;-66
2022/05/03 00:53:51;;;;;;;7.45;6.32;;;6.80;99.90;7.40;98112.00;;;;4883365;28;87041;-65
2022/05/03 00:56:36;;;;;;;7.43;5.82;;;6.80;99.90;7.40;98104.00;;;;4897078;28;87052;-66
2022/05/03 00:59:08;;;;;;;7.35;6.38;;;6.80;99.90;7.30;98106.00;;;;4896729;28;88831;-66
2022/05/03 01:02:03;;;;;;;7.38;6.53;;;6.70;99.90;7.30;98113.00;;;;4890607;28;89609;-66
2022/05/03 01:04:57;;;;;;;9.35;6.70;;;6.70;99.90;7.20;98112.00;;;;4888240;28;86985;-65
2022/05/03 01:07:30;;;;;;;9.55;6.85;;;6.60;99.90;7.20;98108.00;;;;4884930;28;87460;-66
2022/05/03 01:10:14;;;;;;;7.75;6.85;;;6.70;99.90;7.10;98096.00;;;;4899666;28;87791;-65
2022/05/03 01:13:25;;;;;;;9.48;6.70;;;6.60;99.90;7.10;98102.00;;;;4890990;28;88934;-65
2022/05/03 01:16:19;;;;;;;9.60;7.53;;;6.60;99.90;7.10;98113.00;;;;4898872;28;87538;-66
2022/05/03 01:19:04;;;;;;;9.38;7.20;;;6.50;99.90;7.00;98094.00;;;;4884856;28;86565;-66
2022/05/03 01:22:13;;;;;;;10.93;8.15;;;6.50;99.90;7.00;98097.00;;;;4882490;28;88351;-65
2022/05/03 01:25:12;;;;;;;9.95;7.10;;;6.50;99.90;7.00;98089.00;;;;4885521;28;87753;-65
2022/05/03 01:27:48;;;;;;;8.55;7.20;;;6.50;99.90;7.00;98083.00;;;;4881298;28;88800;-65
2022/05/03 01:30:16;;;;;;;10.32;8.05;;;6.40;99.90;6.90;98078.00;;;;4879238;28;87928;-65
2022/05/03 01:32:44;;;;;;;9.82;8.30;;;6.40;99.90;6.90;98075.00;;;;4883796;28;87612;-65
2022/05/03 01:35:13;;;;;;;9.95;8.20;;;6.40;99.90;6.90;98072.00;;;;4890520;28;87217;-65
2022/05/03 01:37:50;;;;;;;9.63;7.68;;;6.30;99.90;6.90;98073.00;;;;4892756;28;87451;-65
2022/05/03 01:40:33;;;;;;;8.48;7.68;;;6.30;99.90;6.90;98074.00;;;;4896508;28;87341;-65
2022/05/03 01:43:37;;;;;;;9.82;8.82;;;6.30;99.90;6.90;98080.00;;;;4884297;28;90688;-65
2022/05/03 01:46:08;;;;;;;9.57;8.48;;;6.20;99.90;6.90;98071.00;;;;4887784;28;87340;-65
2022/05/03 01:52:16;;;;;;;10.48;8.93;;;6.30;99.90;6.90;98063.00;;;;4882729;28;87285;-65
2022/05/03 01:55:37;;;;;;;12.85;9.38;;;6.30;99.90;6.90;98057.00;;;;4881633;28;89111;-66
2022/05/03 01:58:35;;;;;;;9.40;8.48;;;6.30;99.90;6.90;98067.00;;;;4899578;28;88296;-65
2022/05/03 02:01:22;;;;;;;9.52;8.45;;;6.30;99.90;7.00;98064.00;;;;4899973;28;87017;-66
2022/05/03 02:04:27;;;;;;;9.77;8.88;;;6.40;99.90;7.00;98069.00;;;;4890307;28;87155;-66
2022/05/03 02:07:12;;;;;;;9.85;8.60;;;6.30;99.90;7.00;98071.00;;;;4881128;28;88357;-66
2022/05/03 02:10:17;;;;;;;11.00;9.15;;;6.40;99.90;7.00;98072.00;;;;4890589;28;86995;-66
2022/05/03 02:12:58;;;;;;;9.25;8.35;;;6.40;99.90;7.00;98060.00;;;;4875247;28;87316;-65
2022/05/03 02:15:44;;;;;;;9.50;8.50;;;6.40;99.90;7.10;98067.00;;;;4882349;28;86339;-65
2022/05/03 02:18:37;;;;;;;9.50;8.23;;;6.50;99.90;7.20;98070.00;;;;4896761;28;88816;-65
2022/05/03 02:21:21;;;;;;;9.35;8.40;;;6.50;99.90;7.20;98061.00;;;;4894243;28;87261;-65
2022/05/03 02:24:02;;;;;;;8.25;7.45;;;6.60;99.90;7.30;98054.00;;;;4883467;28;88349;-66
2022/05/03 02:26:50;;;;;;;10.18;7.22;;;6.70;99.90;7.40;98054.00;;;;4886782;28;87290;-66
2022/05/03 02:29:22;;;;;;;9.35;7.88;;;6.80;99.90;7.50;98044.00;;;;4884854;28;88930;-65
2022/05/03 02:32:10;;;;;;;9.77;7.55;;;6.80;99.90;7.60;98046.00;;;;4889094;28;87742;-65
2022/05/03 02:35:03;;;;;;;8.25;6.97;;;6.90;99.90;7.60;98048.00;;;;4879566;28;86956;-66
2022/05/03 02:38:05;;;;;;;12.30;7.55;;;7.00;99.90;7.80;98040.00;;;;4897636;28;87674;-66
2022/05/03 02:40:33;;;;;;;9.87;7.00;;;7.10;99.90;8.00;98048.00;;;;4863246;28;88406;-66
2022/05/03 02:42:59;;;;;;;9.85;6.28;;;7.30;99.90;8.30;98035.00;;;;4891392;28;87489;-66
2022/05/03 02:45:26;;;;;;;7.70;5.50;;;7.50;99.90;8.70;98038.00;;;;4891490;28;87641;-66
2022/05/03 02:48:18;;;;;;;7.53;5.88;;;7.80;99.90;8.90;98039.00;;;;4881953;28;87625;-65
2022/05/03 02:51:04;;;;;;;7.40;5.50;;;8.10;99.90;9.10;98029.00;;;;4895341;28;88608;-66
2022/05/03 02:53:56;;;;;;;10.43;6.32;;;8.40;99.90;9.50;98031.00;;;;4885863;28;88325;-66
2022/05/03 02:56:34;;;;;;;9.20;6.30;;;8.70;99.90;9.70;98030.00;;;;4888694;28;87338;-65
2022/05/03 02:59:15;;;;;;;11.73;6.03;;;8.90;99.90;9.70;98042.00;;;;4880804;28;87319;-65
2022/05/03 03:02:09;;;;;;;9.95;6.15;;;8.90;99.90;9.70;98031.00;;;;4899542;28;87089;-65
2022/05/03 03:04:41;;;;;;;8.48;5.85;;;9.00;99.90;10.00;98029.00;;;;4897291;28;87240;-65
2022/05/03 03:07:07;;;;;;;7.68;6.28;;;9.20;99.90;9.90;98027.00;;;;4900276;28;87787;-66
2022/05/03 03:09:50;;;;;;;8.55;5.68;;;9.10;99.90;10.00;98022.00;;;;4891017;28;86846;-65
2022/05/03 03:12:39;;;;;;;9.18;5.72;;;9.30;99.90;10.40;98023.00;;;;4893831;28;87600;-65
2022/05/03 03:15:09;;;;;;;7.53;5.25;;;9.50;99.90;10.70;98014.00;;;;4897539;28;87224;-65
2022/05/03 03:17:51;;;;;;;9.27;5.75;;;9.80;99.90;10.90;98029.00;;;;4889286;28;87951;-62
2022/05/03 03:20:28;;;;;;;;;;;10.10;99.90;11.20;98017.00;;;;4888785;28;87250;-62
2022/05/03 03:22:55;;;;;;;10.05;6.47;;;10.20;99.90;11.50;98021.00;;;;4881497;28;88760;-62
2022/05/03 03:25:23;;;;;;;8.93;5.35;;;10.50;99.90;11.90;98007.00;;;;4885759;28;88507;-62
2022/05/03 03:27:57;;;;;;;10.13;5.28;;;10.90;99.90;12.50;98013.00;;;;4884620;28;87248;-63
2022/05/03 03:30:23;;;;;;;8.38;5.30;;;11.50;99.90;12.80;98006.00;;;;4887268;28;87019;-64
2022/05/03 03:32:57;;;;;;;11.30;5.90;;;11.80;99.90;12.90;98008.00;;;;4892452;28;88868;-63
2022/05/03 03:35:25;;;;;;;9.30;5.32;;;11.90;99.90;13.10;98001.00;;;;4893102;28;87983;-63
2022/05/03 03:37:53;;;;;;;11.55;5.43;;;12.10;99.90;13.50;98006.00;;;;4902053;28;87467;-63
2022/05/03 03:40:20;;;;;;;9.50;5.47;;;12.50;99.90;13.80;98011.00;;;;4901061;28;87020;-63
2022/05/03 03:42:48;;;;;;;8.60;5.35;;;12.70;99.90;13.40;98011.00;;;;4894069;28;88534;-63
2022/05/03 03:45:16;;;;;;;10.98;5.57;;;12.40;99.90;13.10;98011.00;;;;4898817;28;88143;-63
2022/05/03 03:47:44;;;;;;;16.17;4.95;;;12.20;99.90;13.00;98001.00;;;;4884027;28;86987;-63
2022/05/03 03:50:12;;;;;;;11.82;5.43;;;11.90;99.90;12.80;98013.00;;;;4886972;28;87847;-63
2022/05/03 03:52:43;;;;;;;10.45;5.20;;;11.80;99.90;12.40;97996.00;;;;4885216;28;87530;-63
2022/05/03 03:55:12;;;;;;;11.13;5.35;;;11.50;99.90;12.20;97987.00;;;;4885997;28;89249;-63
2022/05/03 03:57:40;;;;;;;16.30;5.72;;;11.30;99.90;12.00;97998.00;;;;4886666;28;87195;-63
2022/05/03 04:00:13;;;;;;;6.72;5.20;;;11.10;99.90;11.90;98000.00;;;;4886674;28;86640;-63
2022/05/03 04:02:45;;;;;;;9.93;5.65;;;11.00;99.90;11.90;97986.00;;;;4896730;28;88647;-63
2022/05/03 04:05:16;;;;;;;10.38;5.55;;;11.10;99.90;12.30;97996.00;;;;4898913;28;88442;-62
2022/05/03 04:07:43;;;;;;;;;;;11.30;99.90;12.60;98002.00;;;;4900519;28;88326;-64
2022/05/03 04:10:09;;;;;;;10.05;5.40;;;11.60;99.90;13.00;97997.00;;;;4889524;28;87158;-64
2022/05/03 04:12:36;;;;;;;7.20;4.97;;;12.00;99.90;13.50;97990.00;;;;4889970;28;86984;-64
2022/05/03 04:15:03;;;;;;;12.02;5.30;;;12.40;99.90;14.20;97986.00;;;;4898602;28;88081;-64
2022/05/03 04:17:30;;;;;;;13.20;5.15;;;13.10;99.90;14.90;97990.00;;;;4885614;28;87659;-64
2022/05/03 04:19:56;;;;;;;11.77;5.20;;;13.60;99.90;14.90;97986.00;;;;4885165;28;87083;-63
2022/05/03 04:22:32;;;;;;;9.40;4.53;;;13.70;99.90;14.80;97986.00;;;;4891402;28;88597;-63
2022/05/03 04:25:00;;;;;;;13.25;5.00;;;13.60;99.90;14.40;97985.00;;;;4887605;28;88465;-64
2022/05/03 04:27:27;;;;;;;8.85;4.65;;;13.20;99.90;13.80;97973.00;;;;4887574;28;87045;-63
2022/05/03 04:29:55;;;;;;;11.60;5.60;;;12.90;99.90;14.00;97989.00;;;;4883975;28;87049;-63
2022/05/03 04:32:22;;;;;;;7.97;5.10;;;13.00;99.90;14.00;97981.00;;;;4889330;28;89557;-63
2022/05/03 04:34:49;;;;;;;9.32;4.90;;;13.00;99.90;13.90;97984.00;;;;4886326;28;88183;-63
2022/05/03 04:37:15;;;;;;;10.32;5.18;;;12.90;99.90;14.10;97974.00;;;;4893460;28;86835;-64
2022/05/03 04:39:41;;;;;;;8.27;4.72;;;13.10;99.90;14.40;97979.00;;;;4888305;28;87385;-62
2022/05/03 04:42:08;;;;;;;8.20;4.68;;;13.30;99.90;14.40;97978.00;;;;4901475;28;88850;-62
2022/05/03 04:44:35;;;;;;;13.48;5.45;;;13.30;99.90;14.40;97960.00;;;;4890888;28;87198;-62
2022/05/03 04:47:01;;;;;;;8.02;4.93;;;13.40;99.90;14.80;97976.00;;;;4890603;28;87392;-63
2022/05/03 04:49:27;;;;;;;9.05;4.72;;;13.60;99.90;14.90;97968.00;;;;4888355;28;86750;-63
2022/05/03 04:51:54;;;;;;;6.97;4.80;;;13.70;99.90;14.90;97967.00;;;;4890990;28;87590;-63
2022/05/03 04:54:20;;;;;;;8.18;4.72;;;13.80;99.90;14.90;97971.00;;;;4886352;28;87296;-62
2022/05/03 04:56:51;;;;;;;13.10;4.97;;;13.80;99.90;14.90;97980.00;;;;4888664;28;88311;-63
2022/05/03 04:59:17;;;;;;;10.07;4.30;;;13.80;99.90;14.80;97969.00;;;;4885425;28;87395;-63
2022/05/03 05:01:44;;;;;;;8.98;4.70;;;13.60;99.90;14.40;97980.00;;;;4892244;28;88816;-63
2022/05/03 05:04:10;;;;;;;8.23;4.95;;;13.30;99.90;14.10;97976.00;;;;4891910;28;87274;-64
2022/05/03 05:06:36;;;;;;;7.40;4.88;;;13.00;99.90;13.80;97974.00;;;;4892025;28;86900;-64
2022/05/03 05:09:02;;;;;;;9.68;5.47;;;12.80;99.90;13.50;97970.00;;;;4893445;28;87645;-64
2022/05/03 05:11:28;;;;;;;8.27;4.95;;;12.40;99.90;13.70;97973.00;;;;4887214;28;88001;-64
2022/05/03 05:13:55;;;;;;;8.65;4.80;;;12.70;99.90;14.00;97958.00;;;;4891249;28;88275;-64
2022/05/03 05:16:21;;;;;;;11.55;4.88;;;12.90;99.90;14.40;97969.00;;;;4888420;28;87329;-63
2022/05/03 05:18:47;;;;;;;9.70;4.45;;;13.20;99.90;14.70;97967.00;;;;4889576;28;86964;-64
2022/05/03 05:21:13;;;;;;;14.07;5.55;;;13.50;99.90;14.80;97961.00;;;;4889564;28;89632;-64
2022/05/03 05:23:40;;;;;;;10.38;5.28;;;13.60;99.90;14.50;97950.00;;;;4884943;28;88227;-63
2022/05/03 05:26:06;;;;;;;13.15;4.57;;;13.50;99.90;14.50;97959.00;;;;4883021;28;87575;-64
2022/05/03 05:28:32;;;;;;;10.23;4.10;;;13.40;99.90;14.60;97945.00;;;;4883573;28;87205;-63
2022/05/03 05:30:58;;;;;;;13.48;4.90;;;13.60;99.90;14.70;97940.00;;;;4886689;28;88490;-63
2022/05/03 05:33:24;;;;;;;8.88;4.50;;;13.60;99.90;15.30;97958.00;;;;4889560;28;87448;-65
2022/05/03 05:35:52;;;;;;;8.30;3.85;;;14.10;99.90;15.60;97950.00;;;;4893578;28;87064;-63
2022/05/03 05:38:19;;;;;;;7.28;4.82;;;14.30;99.90;15.70;97942.00;;;;4892955;28;86424;-63
2022/05/03 05:40:47;;;;;;;34.00;5.85;;;14.50;99.90;16.00;97933.00;;;;4888834;28;87761;-65
2022/05/03 05:43:16;;;;;;;9.05;4.30;;;14.90;99.90;16.50;97926.00;;;;4895531;28;87598;-63
2022/05/03 05:45:44;;;;;;;9.90;4.35;;;15.30;99.90;17.00;97923.00;;;;4898707;28;87918;-64
2022/05/03 05:48:13;;;;;;;8.35;4.80;;;15.70;99.90;17.40;97920.00;;;;4892091;28;87278;-62
2022/05/03 05:50:39;;;;;;;8.70;4.65;;;16.10;99.90;17.10;97934.00;;;;4890665;28;87589;-64
2022/05/03 05:55:51;;;;;;;12.85;4.95;;;15.30;99.90;16.10;97916.00;;;;4884372;28;88159;-65
2022/05/03 05:58:17;;;;;;;15.32;4.82;;;14.90;99.90;15.70;97917.00;;;;4886325;28;87101;-63
2022/05/03 06:00:43;;;;;;;10.77;4.97;;;14.70;99.90;15.50;97927.00;;;;4879856;28;88713;-63
2022/05/03 06:03:09;;;;;;;13.60;5.28;;;14.50;99.90;15.70;97910.00;;;;4886177;28;86606;-62
2022/05/03 06:05:37;;;;;;;10.77;4.60;;;14.50;99.90;15.30;97904.00;;;;4886248;28;86838;-63
2022/05/03 06:08:04;;;;;;;12.80;4.60;;;14.30;99.90;14.90;97906.00;;;;4885739;28;87170;-62
2022/05/03 06:10:30;;;;;;;10.27;5.22;;;14.00;99.90;14.70;97903.00;;;;4889491;28;89726;-63
2022/05/03 06:12:59;;;;;;;13.85;4.57;;;13.90;99.90;14.60;97907.00;;;;4880614;28;88114;-63
2022/05/03 06:15:25;;;;;;;6.70;4.53;;;13.70;99.90;14.60;97900.00;;;;4885017;28;87820;-64
2022/05/03 06:17:53;;;;;;;9.70;4.95;;;13.70;99.90;14.70;97896.00;;;;4887162;28;87086;-64
2022/05/03 06:20:19;;;;;;;7.22;4.32;;;13.90;99.90;14.50;97894.00;;;;4886187;28;87690;-63
2022/05/03 06:22:45;;;;;;;7.20;4.32;;;13.80;99.90;14.60;97889.00;;;;4879020;28;87562;-63
2022/05/03 06:25:11;;;;;;;12.15;4.88;;;13.90;99.90;14.60;97898.00;;;;4886091;28;88682;-63
2022/05/03 06:27:38;;;;;;;7.80;4.18;;;13.90;99.90;14.80;97888.00;;;;4884350;28;86560;-64
2022/05/03 06:30:07;;;;;;;7.38;4.57;;;14.10;99.90;15.00;97884.00;;;;4880946;28;90223;-64
2022/05/03 06:32:35;;;;;;;9.77;5.20;;;14.30;99.90;15.20;97889.00;;;;4898305;28;87715;-64
2022/05/03 06:35:02;;;;;;;8.55;4.75;;;14.40;99.90;15.20;97884.00;;;;4886868;28;88348;-64
2022/05/03 06:37:29;;;;;;;6.78;4.68;;;14.50;99.90;15.50;97891.00;;;;4890497;28;86986;-64
2022/05/03 06:39:55;;;;;;;14.02;4.53;;;14.70;99.90;15.80;97875.00;;;;4888263;28;88821;-64
2022/05/03 06:42:21;;;;;;;11.05;4.43;;;15.00;99.90;15.70;97876.00;;;;4887297;28;87704;-64
2022/05/03 06:44:47;;;;;;;8.93;4.53;;;14.90;99.90;15.80;97870.00;;;;4889067;28;87253;-65
2022/05/03 06:47:14;;;;;;;13.60;5.00;;;15.00;99.90;16.00;97869.00;;;;4890526;28;87032;-65
2022/05/03 06:49:40;;;;;;;9.23;4.50;;;15.20;99.90;16.30;97861.00;;;;4884513;28;87545;-65
2022/05/03 06:52:06;;;;;;;6.85;4.07;;;15.40;99.90;16.20;97867.00;;;;4891175;28;87789;-65
2022/05/03 06:54:32;;;;;;;8.55;4.50;;;15.40;99.90;16.50;97861.00;;;;4885817;28;87145;-64
2022/05/03 06:56:58;;;;;;;9.65;4.85;;;15.60;99.90;16.90;97859.00;;;;4881073;28;88067;-65
2022/05/03 06:59:25;;;;;;;11.20;4.13;;;16.00;99.90;16.70;97853.00;;;;4887414;28;89618;-65
2022/05/03 07:01:51;;;;;;;4.75;3.53;;;15.80;99.90;16.60;97861.00;;;;4890734;28;88893;-64
2022/05/03 07:04:17;;;;;;;8.35;3.95;;;15.70;99.90;16.40;97856.00;;;;4889364;28;86975;-65
2022/05/03 07:06:44;;;;;;;17.80;4.20;;;15.60;99.90;16.40;97843.00;;;;4893012;28;87101;-65
2022/05/03 07:09:10;;;;;;;11.43;4.50;;;15.60;99.90;16.50;97850.00;;;;4894699;28;90200;-65
2022/05/03 07:11:36;;;;;;;11.68;3.80;;;15.60;99.90;16.50;97841.00;;;;4893543;28;88255;-66
2022/05/03 07:14:03;;;;;;;12.43;3.90;;;15.70;99.90;16.60;97847.00;;;;4893927;28;87053;-65
2022/05/03 07:16:30;;;;;;;9.10;4.35;;;15.70;99.90;16.70;97838.00;;;;4890326;28;86357;-64
2022/05/03 07:24:25;;;;;;;11.63;4.47;;;16.00;99.90;16.80;97844.00;;;;4889865;28;87879;-65
2022/05/03 07:26:52;;;;;;;16.73;4.38;;;15.80;99.90;16.80;97824.00;;;;4900267;28;87894;-65
2022/05/03 07:29:18;;;;;;;11.77;3.78;;;15.90;99.90;17.10;97826.00;;;;4899251;28;87551;-65
2022/05/03 07:31:44;;;;;;;6.97;3.70;;;16.10;99.90;17.10;97830.00;;;;4899911;28;87548;-65
2022/05/03 07:34:11;;;;;;;12.27;3.45;;;16.00;99.90;17.20;97816.00;;;;4892043;28;87010;-65
2022/05/03 07:36:37;;;;;;;18.25;4.38;;;16.20;99.90;16.90;97825.00;;;;4900403;28;88372;-63
2022/05/03 07:39:03;;;;;;;13.30;3.78;;;15.90;99.90;17.00;97825.00;;;;4890648;28;87486;-62
2022/05/03 07:41:29;;;;;;;8.70;3.70;;;16.10;99.90;17.20;97825.00;;;;4885381;28;88586;-63
2022/05/03 07:43:55;;;;;;;6.20;3.67;;;16.30;99.90;17.50;97828.00;;;;4895218;28;87363;-63
2022/05/03 07:46:22;;;;;;;7.05;3.50;;;16.50;99.90;17.60;97809.00;;;;4892667;28;87052;-62
2022/05/03 07:48:48;;;;;;;10.13;3.58;;;16.50;99.90;17.10;97804.00;;;;4895272;28;88053;-62
2022/05/03 07:51:14;;;;;;;15.57;4.20;;;16.20;99.90;16.70;97807.00;;;;4890728;28;88968;-62
2022/05/03 07:53:41;;;;;;;22.83;4.53;;;15.80;99.90;16.60;97818.00;;;;4892573;28;87226;-63
2022/05/03 07:56:09;;;;;;;7.28;3.20;;;15.70;99.90;16.60;97807.00;;;;4885535;28;87499;-62
2022/05/03 07:58:36;;;;;;;9.45;3.30;;;15.60;99.90;16.60;97811.00;;;;4894172;28;87700;-63
2022/05/03 08:01:04;;;;;;;19.85;4.00;;;15.70;99.90;16.60;97806.00;;;;4882885;28;90725;-62
2022/05/03 08:03:31;;;;;;;11.82;3.78;;;15.70;99.90;16.90;97803.00;;;;4897438;28;87598;-62
2022/05/03 08:05:58;;;;;;;7.10;3.00;;;16.00;99.90;16.90;97815.00;;;;4888266;28;87838;-63
2022/05/03 08:08:24;;;;;;;6.60;3.33;;;16.00;99.90;17.00;97801.00;;;;4899482;28;88150;-62
2022/05/03 08:10:50;;;;;;;4.00;2.60;;;16.00;99.90;16.80;97793.00;;;;4892642;28;88424;-62
2022/05/03 08:13:17;;;;;;;9.93;3.63;;;15.90;99.90;16.60;97805.00;;;;4894937;28;88051;-62
2022/05/03 08:15:43;;;;;;;7.88;3.25;;;15.70;99.90;16.40;97799.00;;;;4893203;28;87454;-63
2022/05/03 08:18:09;;;;;;;12.48;3.25;;;15.50;99.90;16.40;97793.00;;;;4901648;28;87784;-63
2022/05/03 08:20:35;;;;;;;10.45;3.20;;;15.50;99.90;16.20;97781.00;;;;4894278;28;87278;-63
2022/05/03 08:23:02;;;;;;;15.80;2.97;;;15.40;99.90;16.10;97770.00;;;;4900539;28;88083;-63
2022/05/03 08:25:28;;;;;;;7.22;3.00;;;15.30;99.90;16.20;97772.00;;;;4886498;28;87501;-62
2022/05/03 08:27:55;;;;;;;5.28;2.95;;;15.40;99.90;16.30;97791.00;;;;4884343;28;88877;-63
2022/05/03 08:30:21;;;;;;;11.40;3.10;;;15.50;99.90;16.40;97769.00;;;;4884397;28;87238;-63
2022/05/03 08:32:48;;;;;;;4.65;2.72;;;15.60;99.90;16.70;97777.00;;;;4888964;28;87236;-63
2022/05/03 08:35:14;;;;;;;10.20;2.90;;;15.90;99.90;17.10;97784.00;;;;4889556;28;87402;-63
2022/05/03 08:43:12;;;;;;;6.38;2.80;;;16.30;95.70;17.10;97773.00;;;;4890391;28;87354;-63
2022/05/03 08:45:40;;;;;;;5.55;2.60;;;16.20;96.00;16.80;97771.00;;;;4891144;28;87063;-64
2022/05/03 08:48:07;;;;;;;8.05;3.13;;;15.90;96.90;16.60;97765.00;;;;4891646;28;87606;-63
2022/05/03 08:50:34;;;;;;;9.55;3.10;;;15.80;97.60;16.60;97756.00;;;;4900202;28;87376;-63
2022/05/03 08:53:04;;;;;;;16.27;2.65;;;15.80;98.20;16.40;97751.00;;;;4883990;28;87403;-64
2022/05/03 08:55:30;;;;;;;8.73;2.35;;;15.60;96.70;16.30;97758.00;;;;4900593;28;86256;-63
2022/05/03 08:57:57;;;;;;;8.18;2.75;;;15.40;95.60;16.20;97783.00;;;;4888138;28;87862;-63
2022/05/03 09:00:25;;;;;;;10.15;3.03;;;15.50;96.00;16.50;97770.00;;;;4871871;28;87273;-68
2022/05/03 09:02:55;;;;;;;7.53;2.60;;;15.60;96.10;16.40;97753.00;;;;4893419;28;88494;-68
2022/05/03 09:05:23;;;;;;;13.65;2.45;;;15.60;96.10;16.70;97753.00;;;;4887952;28;87125;-68
2022/05/03 09:07:59;;;;;;;9.73;3.05;;;15.90;96.20;16.90;97751.00;;;;4893172;28;87599;-68
2022/05/03 09:10:33;;;;;;;6.07;2.75;;;16.10;96.90;17.00;97736.00;;;;4892145;28;87067;-68
2022/05/03 09:13:22;;;;;;;8.85;2.63;;;16.20;97.90;17.20;97734.00;;;;4889875;28;87057;-68
2022/05/03 09:15:55;;;;;;;7.47;2.60;;;16.40;97.30;17.40;97737.00;;;;4881934;28;87093;-68
2022/05/03 09:18:27;;;;;;;5.80;2.35;;;16.60;95.80;17.60;97713.00;;;;4882455;28;88804;-68
2022/05/03 09:23:51;;;;;;;6.03;2.17;;;17.00;94.40;17.80;97741.00;;;;4884169;28;87402;-68
2022/05/03 09:26:26;;;;;;;6.45;2.25;;;16.90;91.50;18.00;97715.00;;;;4889245;28;87018;-68
2022/05/03 09:29:01;;;;;;;5.63;2.45;;;17.20;91.60;17.90;97709.00;;;;4880546;28;88028;-68
2022/05/03 09:31:46;;;;;;;11.45;2.97;;;17.10;91.80;18.20;97715.00;;;;4889642;28;88183;-68
2022/05/03 09:34:18;;;;;;;9.30;2.67;;;17.40;91.20;18.20;97700.00;;;;4889503;28;87348;-68
2022/05/03 09:36:51;;;;;;;8.43;2.85;;;17.40;93.30;18.50;97711.00;;;;4890512;28;87113;-67
2022/05/03 09:39:25;;;;;;;12.40;2.80;;;17.60;92.10;18.50;97702.00;;;;4890133;28;87799;-67
2022/05/03 09:42:17;;;;;;;6.78;2.72;;;17.70;91.90;18.50;97702.00;;;;4889479;28;87118;-67
2022/05/03 09:44:58;;;;;;;7.15;2.40;;;17.70;90.50;17.80;97701.00;;;;4891221;28;86941;-68
2022/05/03 09:47:32;;;;;;;6.60;2.78;;;17.00;90.90;17.50;97710.00;;;;4898898;28;86309;-68
2022/05/03 09:49:59;;;;;;;5.63;2.13;;;16.80;91.50;17.80;97689.00;;;;4881379;28;88764;-68
2022/05/03 09:52:36;;;;;;;13.55;2.88;;;17.10;92.70;18.10;97695.00;;;;4885614;28;87574;-68
2022/05/03 09:55:06;;;;;;;6.25;2.08;;;17.30;92.40;18.20;97678.00;;;;4890708;28;87900;-68
2022/05/03 09:57:39;;;;;;;6.65;2.38;;;17.50;91.20;18.60;97689.00;;;;4888357;28;87048;-68
2022/05/03 10:00:12;;;;;;;5.18;2.30;;;17.70;89.70;18.60;97697.00;;;;4884731;28;89315;-68
2022/05/03 10:02:43;;;;;;;7.65;3.35;;;17.70;88.50;18.70;97690.00;;;;4890102;28;87442;-68
2022/05/03 10:05:12;;;;;;;12.50;3.00;;;17.70;89.20;18.60;97674.00;;;;4889524;28;87288;-68
2022/05/03 10:07:43;;;;;;;6.03;2.58;;;17.70;89.10;18.50;97678.00;;;;4886406;28;87170;-69
2022/05/03 10:10:11;;;;;;;6.28;2.53;;;17.70;89.40;18.70;97687.00;;;;4888244;28;87761;-68
2022/05/03 10:12:38;;;;;;;8.02;2.78;;;17.80;91.00;18.80;97681.00;;;;4889483;28;88402;-68
2022/05/03 10:15:05;;;;;;;4.25;2.30;;;17.80;90.40;18.50;97696.00;;;;4881903;28;86921;-69
2022/05/03 10:20:46;;;;;;;18.55;2.58;;;17.30;85.30;18.20;97678.00;;;;4888122;28;88796;-68
2022/05/03 10:23:28;;;;;;;8.75;2.45;;;17.20;80.10;18.10;97669.00;;;;4885127;28;89572;-68
2022/05/03 10:26:01;;;;;;;10.93;2.50;;;17.30;80.50;18.00;97654.00;;;;4887475;28;86903;-68
2022/05/03 10:29:07;;;;;;;7.72;2.38;;;17.20;79.50;18.20;97674.00;;;;4897824;28;88058;-68
2022/05/03 10:31:57;;;;;;;7.43;2.03;;;17.30;80.50;18.30;97679.00;;;;4883954;28;88137;-68
2022/05/03 10:34:56;;;;;;;6.32;2.33;;;17.30;83.10;18.10;97667.00;;;;4897645;28;87517;-68
2022/05/03 10:37:34;;;;;;;9.10;2.30;;;17.20;82.60;18.10;97669.00;;;;4887222;28;87172;-68
2022/05/03 10:40:12;;;;;;;8.88;2.00;;;17.30;80.90;18.40;97663.00;;;;4890231;28;86128;-68
2022/05/03 10:42:38;;;;;;;12.40;2.30;;;17.40;78.90;18.30;97664.00;;;;4899563;28;87639;-68
2022/05/03 10:45:12;;;;;;;13.00;2.22;;;17.40;76.30;18.40;97666.00;;;;4892219;28;87402;-68
2022/05/03 10:47:50;;;;;;;8.18;2.78;;;17.40;77.10;18.20;97674.00;;;;4872156;28;89173;-68
2022/05/03 10:50:16;;;;;;;6.15;2.33;;;17.20;75.60;18.20;97670.00;;;;4882236;28;87038;-68
2022/05/03 10:53:05;;;;;;;6.22;2.10;;;17.30;77.30;18.30;97652.00;;;;4889281;28;88482;-68
2022/05/03 10:55:40;;;;;;;8.23;2.00;;;17.40;77.60;18.40;97652.00;;;;4901955;28;87536;-68
2022/05/03 10:58:30;;;;;;;8.88;2.20;;;17.60;78.00;18.60;97634.00;;;;4896140;28;86959;-68
2022/05/03 11:01:09;;;;;;;9.68;2.45;;;17.70;76.70;18.60;97652.00;;;;4891011;28;87691;-68
2022/05/03 11:04:01;;;;;;;5.32;2.28;;;17.60;76.90;18.50;97649.00;;;;4894016;28;88308;-68
2022/05/03 11:06:28;;;;;;;;;;;17.50;75.80;18.50;97645.00;;;;4872288;28;87858;-68
2022/05/03 11:09:09;;;;;;;5.93;1.77;;;17.60;76.20;18.60;97637.00;;;;4896647;28;86912;-68
2022/05/03 11:11:46;;;;;;;;;;;17.60;73.60;18.40;97635.00;;;;4892815;28;87320;-68
2022/05/03 11:14:21;;;;;;;5.85;1.90;;;17.60;72.20;18.60;97633.00;;;;4892977;28;89641;-68
2022/05/03 11:17:05;;;;;;;14.25;2.10;;;17.80;71.20;19.00;97626.00;;;;4883965;28;90035;-69
2022/05/03 11:19:33;;;;;;;5.53;1.67;;;18.20;68.50;19.00;97623.00;;;;4886217;28;86970;-68
2022/05/03 11:21:59;;;;;;;7.78;1.67;;;18.10;65.80;18.70;97633.00;;;;4894064;28;87061;-68
2022/05/03 11:24:28;;;;;;;10.32;2.00;;;18.00;66.00;18.50;97627.00;;;;4889034;28;87200;-68
2022/05/03 11:26:58;;;;;;;7.35;1.80;;;17.70;65.40;18.50;97618.00;;;;4889224;28;87508;-68
2022/05/03 11:29:30;;;;;;;9.93;2.33;;;17.70;65.00;18.50;97611.00;;;;4888377;28;87011;-68
2022/05/03 11:31:59;;;;;;;7.55;1.88;;;17.70;65.20;18.80;97606.00;;;;4889707;28;86405;-68
2022/05/03 11:34:27;;;;;;;14.35;2.47;;;17.80;65.20;18.90;97598.00;;;;4889322;28;88615;-68
2022/05/03 11:36:54;;;;;;;11.50;3.08;;;17.90;64.60;18.80;97610.00;;;;4890272;28;87718;-69
2022/05/03 11:39:25;;;;;;;4.95;1.98;;;17.90;65.70;18.80;97614.00;;;;4893258;28;88003;-68
2022/05/03 11:41:51;;;;;;;6.65;2.50;;;17.80;64.30;18.80;97603.00;;;;4889736;28;87184;-68
2022/05/03 11:44:18;;;;;;;8.45;1.83;;;17.90;65.80;18.90;97586.00;;;;4896206;28;87656;-68
2022/05/03 11:46:48;;;;;;;7.78;1.80;;;18.00;63.80;18.90;97608.00;;;;4886128;28;87563;-68